Time;durP1;ratioP1;P1;durP2;ratioP2;P2;SDS_P1;SDS_P2;PMS_P1;PMS_P2;Temp;Humidity;BMP_temperature;BMP_pressure;BME280_temperature;BME280_humidity;BME280_pressure;Samples;Min_cycle;Max_cycle;Signal;HPM_P1;HPM_P2
2023/09/19 00:00:31;;;;;;;14.27;3.47;;;;;;;;;;5033813;28;20171;-70
2023/09/19 00:03:01;;;;;;;12.60;3.13;;;;;;;;;;5015965;28;20561;-70
2023/09/19 00:05:27;;;;;;;13.67;3.80;;;;;;;;;;5033799;28;20228;-70
2023/09/19 00:07:54;;;;;;;10.60;2.97;;;;;;;;;;5015952;28;20701;-70
2023/09/19 00:10:24;;;;;;;11.97;3.23;;;;;;;;;;5016128;28;20183;-70
2023/09/19 00:12:52;;;;;;;12.53;3.37;;;;;;;;;;5015531;28;20488;-70
2023/09/19 00:15:18;;;;;;;9.93;3.23;;;;;;;;;;5033771;28;20182;-69
2023/09/19 00:17:44;;;;;;;12.17;3.77;;;;;;;;;;5015605;28;20183;-70
2023/09/19 00:20:13;;;;;;;10.90;2.90;;;;;;;;;;5033306;28;20179;-70
2023/09/19 00:22:45;;;;;;;10.93;3.10;;;;;;;;;;5015573;28;20692;-70
2023/09/19 00:25:11;;;;;;;13.40;3.60;;;;;;;;;;5033201;28;20174;-70
2023/09/19 00:27:42;;;;;;;11.07;3.23;;;;;;;;;;5033147;28;20206;-70
2023/09/19 00:30:15;;;;;;;9.80;3.33;;;;;;;;;;5015537;28;20213;-70
2023/09/19 00:32:42;;;;;;;16.30;3.20;;;;;;;;;;5033421;28;20170;-70
2023/09/19 00:35:10;;;;;;;9.63;3.07;;;;;;;;;;5015095;28;20265;-70
2023/09/19 00:37:37;;;;;;;9.27;2.93;;;;;;;;;;5015287;28;20183;-70
2023/09/19 00:40:09;;;;;;;14.93;3.20;;;;;;;;;;5015364;28;20711;-70
2023/09/19 00:42:37;;;;;;;6.93;2.93;;;;;;;;;;5015565;28;20185;-70
2023/09/19 00:45:03;;;;;;;12.70;3.97;;;;;;;;;;5032850;28;20171;-70
2023/09/19 00:47:29;;;;;;;15.90;3.80;;;;;;;;;;5015126;28;20234;-71
2023/09/19 00:49:56;;;;;;;11.00;2.87;;;;;;;;;;5015305;28;20759;-70
2023/09/19 00:52:23;;;;;;;9.33;2.90;;;;;;;;;;5015187;28;20313;-70
2023/09/19 00:54:50;;;;;;;11.13;2.93;;;;;;;;;;5033311;28;20179;-70
2023/09/19 00:57:17;;;;;;;13.37;3.40;;;;;;;;;;5032783;28;20182;-70
2023/09/19 00:59:43;;;;;;;14.77;3.60;;;;;;;;;;5033005;28;20638;-70
2023/09/19 01:02:10;;;;;;;11.87;3.03;;;;;;;;;;5033078;28;20189;-70
2023/09/19 01:04:36;;;;;;;9.60;2.77;;;;;;;;;;5033366;28;20249;-70
2023/09/19 01:07:03;;;;;;;9.00;3.23;;;;;;;;;;5015071;28;20306;-70
2023/09/19 01:09:29;;;;;;;18.13;3.97;;;;;;;;;;5014983;28;20213;-70
2023/09/19 01:11:59;;;;;;;9.63;3.47;;;;;;;;;;5014999;28;20561;-70
2023/09/19 01:14:31;;;;;;;14.10;3.53;;;;;;;;;;5032918;28;20671;-70
2023/09/19 01:17:09;;;;;;;9.00;3.60;;;;;;;;;;5033029;28;20179;-70
2023/09/19 01:19:54;;;;;;;9.97;3.30;;;;;;;;;;5014920;28;20593;-70
2023/09/19 01:22:23;;;;;;;12.70;3.97;;;;;;;;;;5014809;28;20195;-70
2023/09/19 01:25:08;;;;;;;13.87;3.13;;;;;;;;;;5033419;28;20176;-70
2023/09/19 01:27:52;;;;;;;14.00;3.20;;;;;;;;;;5036035;28;20672;-70
2023/09/19 01:30:22;;;;;;;13.00;3.90;;;;;;;;;;5036564;28;20183;-70
2023/09/19 01:32:48;;;;;;;12.73;4.20;;;;;;;;;;5018651;28;20278;-70
2023/09/19 01:35:15;;;;;;;10.77;3.47;;;;;;;;;;5036090;28;20774;-70
2023/09/19 01:37:43;;;;;;;11.80;4.03;;;;;;;;;;5036230;28;20215;-70
2023/09/19 01:40:11;;;;;;;17.97;4.20;;;;;;;;;;5036184;28;20312;-70
2023/09/19 01:42:37;;;;;;;12.00;3.53;;;;;;;;;;5018217;28;20183;-70
2023/09/19 01:45:18;;;;;;;13.87;3.27;;;;;;;;;;5036118;28;20182;-70
2023/09/19 01:47:58;;;;;;;11.93;3.60;;;;;;;;;;5018326;28;20229;-70
2023/09/19 01:50:25;;;;;;;12.10;3.17;;;;;;;;;;5036258;28;20159;-70
2023/09/19 01:53:04;;;;;;;13.53;3.70;;;;;;;;;;5036159;28;20175;-70
2023/09/19 01:55:31;;;;;;;15.53;3.37;;;;;;;;;;5036377;28;20174;-70
2023/09/19 01:58:04;;;;;;;9.30;3.40;;;;;;;;;;5018568;28;20214;-70
2023/09/19 02:00:30;;;;;;;11.70;3.67;;;;;;;;;;5036813;28;20182;-70
2023/09/19 02:02:58;;;;;;;13.20;3.40;;;;;;;;;;5018951;28;20205;-70
2023/09/19 02:05:25;;;;;;;11.33;3.67;;;;;;;;;;5036599;28;20183;-69
2023/09/19 02:07:51;;;;;;;11.43;3.93;;;;;;;;;;5018219;28;20260;-70
2023/09/19 02:10:17;;;;;;;11.07;3.07;;;;;;;;;;5018059;28;20183;-69
2023/09/19 02:12:43;;;;;;;9.93;2.80;;;;;;;;;;5017937;28;20200;-70
2023/09/19 02:15:09;;;;;;;13.37;3.70;;;;;;;;;;5036219;28;20690;-69
2023/09/19 02:17:35;;;;;;;8.47;2.70;;;;;;;;;;5035696;28;20186;-71
2023/09/19 02:20:03;;;;;;;15.67;3.90;;;;;;;;;;5017716;28;20183;-70
2023/09/19 02:22:29;;;;;;;12.03;3.37;;;;;;;;;;5035501;28;20233;-70
2023/09/19 02:24:58;;;;;;;14.33;3.53;;;;;;;;;;5017923;28;20179;-70
2023/09/19 02:27:24;;;;;;;13.57;3.63;;;;;;;;;;5035588;28;20233;-70
2023/09/19 02:29:51;;;;;;;14.57;3.50;;;;;;;;;;5017551;28;20203;-70
2023/09/19 02:32:18;;;;;;;11.83;3.57;;;;;;;;;;5017693;28;20554;-70
2023/09/19 02:34:44;;;;;;;16.40;3.97;;;;;;;;;;5035267;28;20179;-70
2023/09/19 02:37:10;;;;;;;12.47;3.60;;;;;;;;;;5017435;28;20190;-70
2023/09/19 02:39:37;;;;;;;10.67;3.30;;;;;;;;;;5035385;28;20246;-70
2023/09/19 02:42:04;;;;;;;12.13;3.30;;;;;;;;;;5035628;28;20179;-70
2023/09/19 02:44:30;;;;;;;9.03;3.73;;;;;;;;;;5035466;28;20183;-70
2023/09/19 02:46:57;;;;;;;10.40;3.27;;;;;;;;;;5035428;28;20241;-70
2023/09/19 02:49:23;;;;;;;6.67;2.60;;;;;;;;;;5035739;28;20206;-70
2023/09/19 02:51:49;;;;;;;15.07;2.73;;;;;;;;;;5017361;28;20288;-70
2023/09/19 02:54:19;;;;;;;15.43;4.17;;;;;;;;;;5017483;28;20179;-71
2023/09/19 02:56:45;;;;;;;13.97;3.73;;;;;;;;;;5035178;28;20672;-70
2023/09/19 02:59:11;;;;;;;10.77;3.40;;;;;;;;;;5034920;28;20207;-70
2023/09/19 03:01:38;;;;;;;20.07;4.23;;;;;;;;;;5017369;28;20215;-70
2023/09/19 03:04:11;;;;;;;13.33;3.33;;;;;;;;;;5017096;28;20187;-70
2023/09/19 03:06:38;;;;;;;15.53;3.43;;;;;;;;;;5035179;28;20222;-70
2023/09/19 03:09:12;;;;;;;9.37;3.27;;;;;;;;;;5034781;28;20230;-70
2023/09/19 03:11:39;;;;;;;12.77;3.70;;;;;;;;;;5016980;28;20171;-70
2023/09/19 03:14:05;;;;;;;10.23;3.50;;;;;;;;;;5034707;28;20175;-70
2023/09/19 03:16:33;;;;;;;9.10;3.10;;;;;;;;;;5016768;28;20274;-70
2023/09/19 03:18:59;;;;;;;8.67;3.53;;;;;;;;;;5016626;28;20375;-70
2023/09/19 03:21:25;;;;;;;12.47;3.87;;;;;;;;;;5034260;28;20175;-70
2023/09/19 03:23:51;;;;;;;14.93;4.07;;;;;;;;;;5016667;28;20209;-69
2023/09/19 03:26:17;;;;;;;10.37;3.03;;;;;;;;;;5016441;28;20203;-70
2023/09/19 03:28:43;;;;;;;15.67;3.93;;;;;;;;;;5016350;28;20688;-70
2023/09/19 03:31:10;;;;;;;11.93;3.47;;;;;;;;;;5034205;28;20183;-70
2023/09/19 03:33:37;;;;;;;7.60;3.23;;;;;;;;;;5016285;28;20207;-69
2023/09/19 03:36:04;;;;;;;11.83;3.30;;;;;;;;;;5034018;28;20202;-70
2023/09/19 03:38:31;;;;;;;10.17;3.00;;;;;;;;;;5015973;28;20219;-70
2023/09/19 03:40:57;;;;;;;12.03;3.60;;;;;;;;;;5033805;28;20655;-70
2023/09/19 03:43:23;;;;;;;12.60;3.90;;;;;;;;;;5016060;28;20190;-70
2023/09/19 03:45:50;;;;;;;18.53;3.37;;;;;;;;;;5016567;28;20179;-70
2023/09/19 03:48:17;;;;;;;13.67;3.20;;;;;;;;;;5015367;28;20210;-69
2023/09/19 03:50:43;;;;;;;8.87;3.53;;;;;;;;;;5033709;28;20175;-70
2023/09/19 03:53:10;;;;;;;9.70;3.47;;;;;;;;;;5033837;28;20209;-69
2023/09/19 03:55:36;;;;;;;13.77;4.50;;;;;;;;;;5033574;28;20182;-69
2023/09/19 03:58:05;;;;;;;13.43;3.53;;;;;;;;;;5033716;28;20577;-70
2023/09/19 04:00:31;;;;;;;10.13;3.40;;;;;;;;;;5033963;28;20541;-70
2023/09/19 04:02:57;;;;;;;10.77;3.27;;;;;;;;;;5033951;28;20183;-69
2023/09/19 04:05:23;;;;;;;14.90;4.07;;;;;;;;;;5033501;28;20191;-71
2023/09/19 04:07:53;;;;;;;9.73;3.30;;;;;;;;;;5033402;28;20202;-70
2023/09/19 04:10:20;;;;;;;17.47;3.80;;;;;;;;;;5033378;28;20287;-70
2023/09/19 04:12:55;;;;;;;13.80;5.73;;;;;;;;;;5033334;28;20178;-70
2023/09/19 04:15:22;;;;;;;12.97;5.20;;;;;;;;;;5034033;28;20175;-70
2023/09/19 04:17:49;;;;;;;17.33;7.23;;;;;;;;;;5016759;28;20225;-69
2023/09/19 04:20:15;;;;;;;10.37;4.40;;;;;;;;;;5033879;28;20529;-70
2023/09/19 04:22:41;;;;;;;14.67;3.37;;;;;;;;;;5033450;28;20298;-70
2023/09/19 04:25:07;;;;;;;16.30;3.70;;;;;;;;;;5015594;28;20213;-70
2023/09/19 04:27:34;;;;;;;11.43;3.93;;;;;;;;;;5033418;28;20199;-70
2023/09/19 04:30:03;;;;;;;17.23;7.77;;;;;;;;;;5015635;28;20175;-70
2023/09/19 04:32:32;;;;;;;15.77;4.40;;;;;;;;;;5015518;28;20653;-70
2023/09/19 04:35:00;;;;;;;17.33;5.70;;;;;;;;;;5033154;28;20167;-70
2023/09/19 04:37:26;;;;;;;8.60;3.57;;;;;;;;;;5015425;28;20721;-70
2023/09/19 04:39:52;;;;;;;12.47;4.87;;;;;;;;;;5015329;28;20222;-70
2023/09/19 04:42:18;;;;;;;14.30;4.57;;;;;;;;;;5032940;28;20557;-70
2023/09/19 04:44:44;;;;;;;10.80;4.23;;;;;;;;;;5033014;28;20178;-70
2023/09/19 04:47:12;;;;;;;12.07;4.10;;;;;;;;;;5015304;28;20215;-70
2023/09/19 04:49:39;;;;;;;11.13;3.20;;;;;;;;;;5015166;28;20199;-69
2023/09/19 04:52:06;;;;;;;11.60;3.50;;;;;;;;;;5015268;28;20266;-69
2023/09/19 04:54:33;;;;;;;10.83;3.73;;;;;;;;;;5033181;28;20171;-71
2023/09/19 04:57:00;;;;;;;14.83;4.07;;;;;;;;;;5015281;28;20183;-70
2023/09/19 04:59:26;;;;;;;12.50;3.73;;;;;;;;;;5017078;28;20209;-70
2023/09/19 05:01:52;;;;;;;12.77;3.40;;;;;;;;;;5036793;28;20179;-70
2023/09/19 05:04:18;;;;;;;10.23;3.13;;;;;;;;;;5036980;28;20183;-70
2023/09/19 05:06:44;;;;;;;13.07;3.77;;;;;;;;;;5018967;28;20760;-69
2023/09/19 05:09:10;;;;;;;18.57;4.10;;;;;;;;;;5036679;28;20584;-70
2023/09/19 05:11:38;;;;;;;12.80;3.60;;;;;;;;;;5036773;28;20653;-70
2023/09/19 05:14:03;;;;;;;11.67;3.30;;;;;;;;;;5036786;28;20171;-70
2023/09/19 05:16:33;;;;;;;11.17;3.93;;;;;;;;;;5036945;28;20179;-70
2023/09/19 05:19:00;;;;;;;9.00;3.07;;;;;;;;;;5036448;28;20195;-70
2023/09/19 05:21:28;;;;;;;17.47;3.97;;;;;;;;;;5018770;28;20193;-70
2023/09/19 05:23:54;;;;;;;9.00;3.20;;;;;;;;;;5036621;28;20179;-70
2023/09/19 05:26:20;;;;;;;16.03;3.93;;;;;;;;;;5018550;28;20210;-70
2023/09/19 05:28:48;;;;;;;;;;;;;;;;;;5036696;28;20572;-69
2023/09/19 05:31:15;;;;;;;;;;;;;;;;;;5036853;28;19905;-70
2023/09/19 05:33:41;;;;;;;;;;;;;;;;;;5018972;28;20363;-70
2023/09/19 05:36:09;;;;;;;10.10;3.10;;;;;;;;;;5018755;28;19912;-70
2023/09/19 05:38:35;;;;;;;15.83;4.07;;;;;;;;;;5018201;28;20247;-70
2023/09/19 05:41:02;;;;;;;16.33;4.20;;;;;;;;;;5018220;28;20556;-70
2023/09/19 05:43:28;;;;;;;17.23;4.50;;;;;;;;;;5035976;28;20224;-69
2023/09/19 05:45:56;;;;;;;13.53;3.70;;;;;;;;;;5018222;28;20171;-70
2023/09/19 05:48:22;;;;;;;11.40;3.60;;;;;;;;;;5018402;28;20305;-70
2023/09/19 05:50:48;;;;;;;;;;;;;;;;;;5036309;28;19951;-71
2023/09/19 05:53:15;;;;;;;;;;;;;;;;;;5036702;28;19905;-70
2023/09/19 05:55:41;;;;;;;;;;;;;;;;;;5018489;28;19905;-70
2023/09/19 05:58:08;;;;;;;;;;;;;;;;;;5036336;28;19920;-70
2023/09/19 06:00:34;;;;;;;;;;;;;;;;;;5036482;28;19928;-70
2023/09/19 06:03:01;;;;;;;;;;;;;;;;;;5036224;28;20373;-70
2023/09/19 06:05:26;;;;;;;;;;;;;;;;;;5036224;28;20299;-70
2023/09/19 06:07:52;;;;;;;;;;;;;;;;;;5018077;28;20000;-70
2023/09/19 06:10:20;;;;;;;;;;;;;;;;;;5017469;28;19931;-69
2023/09/19 06:12:46;;;;;;;;;;;;;;;;;;5018267;28;19905;-70
2023/09/19 06:15:15;;;;;;;;;;;;;;;;;;5036370;28;19991;-70
2023/09/19 06:17:41;;;;;;;;;;;;;;;;;;5037077;28;19905;-70
2023/09/19 06:20:14;;;;;;;;;;;;;;;;;;5036075;28;19912;-70
2023/09/19 06:22:41;;;;;;;;;;;;;;;;;;5018393;28;20448;-70
2023/09/19 06:25:07;;;;;;;;;;;;;;;;;;5024532;28;19905;-70
2023/09/19 06:27:36;;;;;;;;;;;;;;;;;;5035541;28;19909;-71
2023/09/19 06:30:02;;;;;;;;;;;;;;;;;;5018196;28;20319;-70
2023/09/19 06:32:28;;;;;;;;;;;;;;;;;;5036195;28;19940;-70
2023/09/19 06:34:54;;;;;;;;;;;;;;;;;;5037214;28;20334;-70
2023/09/19 06:37:20;;;;;;;;;;;;;;;;;;5019217;28;19919;-70
2023/09/19 06:39:49;;;;;;;;;;;;;;;;;;5018369;28;20311;-70
2023/09/19 06:42:17;;;;;;;;;;;;;;;;;;5035647;28;19935;-70
2023/09/19 06:44:42;;;;;;;;;;;;;;;;;;5035451;28;20320;-70
2023/09/19 06:47:09;;;;;;;;;;;;;;;;;;5035790;28;19955;-70
2023/09/19 06:49:35;;;;;;;;;;;;;;;;;;5035658;28;19999;-70
2023/09/19 06:52:02;;;;;;;;;;;;;;;;;;5017778;28;19955;-70
2023/09/19 06:54:31;;;;;;;;;;;;;;;;;;5036006;28;19956;-70
2023/09/19 06:56:58;;;;;;;;;;;;;;;;;;5035508;28;19909;-70
2023/09/19 06:59:24;;;;;;;;;;;;;;;;;;5017542;28;20319;-70
2023/09/19 07:01:50;;;;;;;;;;;;;;;;;;5035250;28;19909;-70
2023/09/19 07:04:19;;;;;;;;;;;;;;;;;;5017820;28;19905;-70
2023/09/19 07:06:45;;;;;;;;;;;;;;;;;;5017912;28;19971;-70
2023/09/19 07:09:12;;;;;;;;;;;;;;;;;;5017423;28;19996;-70
2023/09/19 07:11:38;;;;;;;;;;;;;;;;;;5035448;28;19956;-70
2023/09/19 07:14:05;;;;;;;14.43;4.33;;;;;;;;;;5017080;28;19921;-70
2023/09/19 07:16:31;;;;;;;13.67;4.17;;;;;;;;;;5034822;28;20172;-69
2023/09/19 07:18:57;;;;;;;14.87;3.53;;;;;;;;;;5016604;28;20211;-70
2023/09/19 07:21:24;;;;;;;12.53;3.87;;;;;;;;;;5034109;28;20175;-70
2023/09/19 07:23:50;;;;;;;12.03;3.27;;;;;;;;;;5015687;28;20278;-70
2023/09/19 07:26:16;;;;;;;12.97;3.40;;;;;;;;;;5034250;28;20211;-70
2023/09/19 07:28:43;;;;;;;16.10;3.87;;;;;;;;;;5016693;28;20202;-70
2023/09/19 07:31:10;;;;;;;14.07;3.57;;;;;;;;;;5016619;28;20183;-70
2023/09/19 07:33:36;;;;;;;17.10;3.47;;;;;;;;;;5016328;28;20602;-70
2023/09/19 07:36:02;;;;;;;9.33;3.60;;;;;;;;;;5017150;28;20281;-71
2023/09/19 07:38:28;;;;;;;11.00;3.33;;;;;;;;;;5017145;28;20280;-70
2023/09/19 07:41:00;;;;;;;16.17;11.33;;;;;;;;;;5034764;28;20674;-70
2023/09/19 07:43:35;;;;;;;15.97;3.80;;;;;;;;;;5071314;28;21087;-71
2023/09/19 07:46:09;;;;;;;15.70;4.23;;;;;;;;;;5070571;28;20234;-71
2023/09/19 07:48:38;;;;;;;12.53;3.87;;;;;;;;;;5069843;28;20193;-70
2023/09/19 07:51:04;;;;;;;14.80;3.77;;;;;;;;;;5071551;28;20644;-70
2023/09/19 07:53:30;;;;;;;14.73;3.57;;;;;;;;;;5070856;28;20204;-71
2023/09/19 07:56:06;;;;;;;16.10;4.30;;;;;;;;;;5071505;28;20178;-71
2023/09/19 07:58:33;;;;;;;12.27;3.47;;;;;;;;;;5070928;28;20287;-71
2023/09/19 08:01:06;;;;;;;12.97;3.47;;;;;;;;;;5070405;28;20170;-71
2023/09/19 08:03:32;;;;;;;9.73;2.90;;;;;;;;;;5069293;28;20643;-71
2023/09/19 08:05:59;;;;;;;12.43;3.80;;;;;;;;;;5069823;28;20182;-71
2023/09/19 08:08:26;;;;;;;16.37;3.93;;;;;;;;;;5069670;28;20194;-71
2023/09/19 08:10:58;;;;;;;12.00;3.90;;;;;;;;;;5069113;28;20182;-71
2023/09/19 08:13:24;;;;;;;16.47;4.23;;;;;;;;;;5071080;28;20173;-71
2023/09/19 08:15:50;;;;;;;12.43;3.47;;;;;;;;;;5073910;28;20186;-71
2023/09/19 08:18:17;;;;;;;10.73;3.20;;;;;;;;;;5072228;28;20198;-70
2023/09/19 08:20:46;;;;;;;10.93;3.20;;;;;;;;;;5069700;28;20204;-70
2023/09/19 08:23:12;;;;;;;11.27;3.00;;;;;;;;;;5069658;28;20226;-70
2023/09/19 08:25:39;;;;;;;16.40;4.00;;;;;;;;;;5070262;28;20170;-70
2023/09/19 08:28:08;;;;;;;12.40;3.10;;;;;;;;;;5069664;28;20190;-70
2023/09/19 08:30:34;;;;;;;10.97;3.50;;;;;;;;;;5068398;28;20178;-70
2023/09/19 08:33:01;;;;;;;9.73;3.27;;;;;;;;;;5069229;28;20593;-70
2023/09/19 08:35:27;;;;;;;10.37;2.50;;;;;;;;;;5069993;28;20174;-69
2023/09/19 08:37:55;;;;;;;12.20;3.10;;;;;;;;;;5069313;28;20671;-70
2023/09/19 08:40:21;;;;;;;15.17;3.43;;;;;;;;;;5069628;28;20192;-70
2023/09/19 08:42:48;;;;;;;12.47;3.33;;;;;;;;;;5069845;28;20209;-70
2023/09/19 08:45:14;;;;;;;13.80;4.33;;;;;;;;;;5068398;28;20201;-70
2023/09/19 08:47:44;;;;;;;13.67;3.47;;;;;;;;;;5073423;28;20228;-70
2023/09/19 08:50:29;;;;;;;16.20;3.70;;;;;;;;;;5070388;28;20213;-69
2023/09/19 08:52:56;;;;;;;12.93;3.47;;;;;;;;;;5082616;28;20269;-69
2023/09/19 08:55:26;;;;;;;14.17;3.60;;;;;;;;;;5066749;28;20186;-69
2023/09/19 08:57:53;;;;;;;12.13;3.30;;;;;;;;;;5061845;28;20675;-69
2023/09/19 09:00:21;;;;;;;16.23;3.77;;;;;;;;;;5057709;28;20182;-70
2023/09/19 09:02:47;;;;;;;10.03;3.30;;;;;;;;;;5059002;28;20202;-69
2023/09/19 09:05:15;;;;;;;16.33;4.20;;;;;;;;;;5060117;28;20182;-70
2023/09/19 09:07:41;;;;;;;13.50;3.70;;;;;;;;;;5058047;28;20177;-69
2023/09/19 09:10:08;;;;;;;13.43;3.67;;;;;;;;;;5058073;28;20228;-69
2023/09/19 09:12:36;;;;;;;14.67;3.43;;;;;;;;;;5056258;28;20186;-69
2023/09/19 09:15:03;;;;;;;12.63;3.30;;;;;;;;;;5057986;28;20179;-69
2023/09/19 09:17:29;;;;;;;12.40;4.07;;;;;;;;;;5058077;28;20175;-69
2023/09/19 09:19:55;;;;;;;9.73;2.80;;;;;;;;;;5057576;28;20257;-69
2023/09/19 09:22:21;;;;;;;12.03;3.27;;;;;;;;;;5056995;28;20282;-69
2023/09/19 09:24:54;;;;;;;14.23;4.40;;;;;;;;;;5056891;28;20540;-69
2023/09/19 09:27:23;;;;;;;10.87;3.43;;;;;;;;;;5057782;28;20265;-70
2023/09/19 09:29:50;;;;;;;12.23;3.03;;;;;;;;;;5055419;28;20199;-69
2023/09/19 09:32:22;;;;;;;10.07;3.67;;;;;;;;;;5057042;28;20548;-69
2023/09/19 09:34:49;;;;;;;11.53;3.50;;;;;;;;;;5056365;28;20185;-69
2023/09/19 09:37:17;;;;;;;11.90;3.57;;;;;;;;;;5057219;28;20182;-70
2023/09/19 09:39:51;;;;;;;12.23;3.37;;;;;;;;;;5055879;28;20217;-70
2023/09/19 09:42:33;;;;;;;10.97;3.20;;;;;;;;;;5058447;28;20205;-69
2023/09/19 09:45:17;;;;;;;11.80;2.77;;;;;;;;;;5056525;28;20187;-69
2023/09/19 09:47:49;;;;;;;11.77;3.77;;;;;;;;;;5056386;28;20629;-69
2023/09/19 09:50:28;;;;;;;8.73;3.07;;;;;;;;;;5055401;28;20186;-69
2023/09/19 09:53:00;;;;;;;10.40;3.40;;;;;;;;;;5055850;28;20190;-69
2023/09/19 09:55:26;;;;;;;12.73;3.57;;;;;;;;;;5055912;28;20682;-69
2023/09/19 09:58:18;;;;;;;14.50;4.20;;;;;;;;;;5055004;28;20207;-69
2023/09/19 10:00:57;;;;;;;7.97;2.70;;;;;;;;;;5055353;28;20179;-68
2023/09/19 10:03:31;;;;;;;11.60;3.20;;;;;;;;;;5055986;28;20617;-70
2023/09/19 10:05:58;;;;;;;15.10;3.70;;;;;;;;;;5056920;28;20576;-69
2023/09/19 10:08:26;;;;;;;9.57;3.33;;;;;;;;;;5059605;28;20214;-70
2023/09/19 10:13:21;;;;;;;13.67;3.57;;;;;;;;;;5060375;28;20224;-69
2023/09/19 10:15:53;;;;;;;9.87;3.00;;;;;;;;;;5054779;28;20170;-69
2023/09/19 10:18:20;;;;;;;8.27;2.73;;;;;;;;;;5055103;28;20202;-69
2023/09/19 10:20:49;;;;;;;12.40;3.57;;;;;;;;;;5054943;28;20182;-68
2023/09/19 10:23:22;;;;;;;13.37;3.20;;;;;;;;;;5054883;28;20210;-69
2023/09/19 10:25:48;;;;;;;11.37;3.67;;;;;;;;;;5054023;28;20174;-69
2023/09/19 10:28:15;;;;;;;9.20;3.37;;;;;;;;;;5053373;28;20234;-69
2023/09/19 10:30:44;;;;;;;10.90;3.60;;;;;;;;;;5054902;28;20179;-69
2023/09/19 10:33:11;;;;;;;7.20;2.43;;;;;;;;;;5054930;28;20224;-69
2023/09/19 10:35:40;;;;;;;13.27;3.13;;;;;;;;;;5054198;28;20629;-69
2023/09/19 10:38:08;;;;;;;11.70;3.20;;;;;;;;;;5053230;28;20199;-69
2023/09/19 10:40:35;;;;;;;10.77;3.47;;;;;;;;;;5054989;28;20304;-69
2023/09/19 10:43:05;;;;;;;14.00;3.40;;;;;;;;;;5054489;28;20214;-69
2023/09/19 10:45:32;;;;;;;10.73;3.50;;;;;;;;;;5055301;28;20171;-69
2023/09/19 10:47:58;;;;;;;9.77;2.57;;;;;;;;;;5053759;28;20194;-69
2023/09/19 10:50:25;;;;;;;14.30;3.77;;;;;;;;;;5055338;28;20605;-69
2023/09/19 10:52:58;;;;;;;7.77;3.37;;;;;;;;;;5053478;28;20250;-70
2023/09/19 10:55:24;;;;;;;8.27;2.80;;;;;;;;;;5054009;28;20241;-70
2023/09/19 10:57:50;;;;;;;8.87;3.10;;;;;;;;;;5054859;28;20202;-69
2023/09/19 11:00:23;;;;;;;9.27;3.30;;;;;;;;;;5054100;28;20233;-69
2023/09/19 11:03:08;;;;;;;10.53;2.80;;;;;;;;;;5054164;28;20285;-70
2023/09/19 11:05:40;;;;;;;6.30;3.10;;;;;;;;;;5057137;28;20154;-70
2023/09/19 11:08:12;;;;;;;10.90;3.43;;;;;;;;;;5053699;28;20285;-70
2023/09/19 11:10:47;;;;;;;11.83;3.10;;;;;;;;;;5054612;28;20242;-69
2023/09/19 11:13:36;;;;;;;7.17;2.83;;;;;;;;;;5053855;28;20192;-69
2023/09/19 11:16:04;;;;;;;8.60;3.03;;;;;;;;;;5054939;28;20206;-70
2023/09/19 11:18:43;;;;;;;8.73;2.97;;;;;;;;;;5055110;28;20190;-70
2023/09/19 11:21:33;;;;;;;9.00;3.07;;;;;;;;;;5073994;28;20613;-70
2023/09/19 11:24:26;;;;;;;8.13;3.10;;;;;;;;;;5053912;28;20201;-69
2023/09/19 11:27:09;;;;;;;9.47;3.03;;;;;;;;;;5054141;28;20213;-69
2023/09/19 11:29:35;;;;;;;9.03;3.10;;;;;;;;;;5053839;28;20194;-69
2023/09/19 11:32:02;;;;;;;6.67;2.53;;;;;;;;;;5052114;28;20179;-69
2023/09/19 11:34:37;;;;;;;7.40;2.70;;;;;;;;;;5053731;28;20189;-69
2023/09/19 11:37:04;;;;;;;9.60;2.80;;;;;;;;;;5053465;28;20672;-70
2023/09/19 11:39:30;;;;;;;9.50;3.10;;;;;;;;;;5053597;28;20252;-69
2023/09/19 11:41:57;;;;;;;7.10;2.87;;;;;;;;;;5051812;28;20217;-69
2023/09/19 11:44:26;;;;;;;10.50;2.93;;;;;;;;;;5053690;28;20178;-69
2023/09/19 11:46:52;;;;;;;11.23;3.40;;;;;;;;;;5053562;28;20174;-69
2023/09/19 11:49:23;;;;;;;8.90;3.33;;;;;;;;;;5053357;28;20604;-69
2023/09/19 11:51:51;;;;;;;11.90;2.90;;;;;;;;;;5053381;28;20535;-69
2023/09/19 11:54:18;;;;;;;7.70;2.93;;;;;;;;;;5053433;28;20174;-69
2023/09/19 11:56:45;;;;;;;8.60;2.93;;;;;;;;;;5052119;28;20319;-69
2023/09/19 11:59:13;;;;;;;5.63;2.80;;;;;;;;;;5053017;28;20198;-69
2023/09/19 12:01:44;;;;;;;10.33;2.77;;;;;;;;;;5053380;28;20202;-68
2023/09/19 12:04:12;;;;;;;5.20;2.50;;;;;;;;;;5053619;28;20155;-69
2023/09/19 12:06:44;;;;;;;8.70;3.17;;;;;;;;;;5053238;28;20315;-69
2023/09/19 12:09:16;;;;;;;8.67;3.00;;;;;;;;;;5053059;28;20191;-69
2023/09/19 12:11:46;;;;;;;7.57;3.00;;;;;;;;;;5053108;28;20261;-69
2023/09/19 12:14:13;;;;;;;6.37;2.77;;;;;;;;;;5053026;28;20177;-69
2023/09/19 12:16:39;;;;;;;6.87;2.90;;;;;;;;;;5051669;28;20262;-70
2023/09/19 12:19:24;;;;;;;8.23;2.93;;;;;;;;;;5053232;28;20229;-70
2023/09/19 12:21:59;;;;;;;11.27;2.70;;;;;;;;;;5053381;28;20659;-69
2023/09/19 12:24:26;;;;;;;6.47;2.80;;;;;;;;;;5052354;28;20170;-69
2023/09/19 12:26:52;;;;;;;9.23;2.57;;;;;;;;;;5052955;28;20262;-69
2023/09/19 12:29:20;;;;;;;9.77;3.47;;;;;;;;;;5054709;28;20628;-69
2023/09/19 12:31:59;;;;;;;10.13;3.07;;;;;;;;;;5056958;28;20189;-69
2023/09/19 12:34:29;;;;;;;6.83;2.10;;;;;;;;;;5056942;28;20159;-69
2023/09/19 12:37:21;;;;;;;7.77;2.60;;;;;;;;;;5056684;28;20178;-69
2023/09/19 12:39:49;;;;;;;6.83;2.93;;;;;;;;;;5056186;28;20201;-69
2023/09/19 12:42:16;;;;;;;6.20;2.87;;;;;;;;;;5056145;28;20210;-69
2023/09/19 12:44:43;;;;;;;8.17;3.20;;;;;;;;;;5057641;28;20747;-69
2023/09/19 12:47:15;;;;;;;9.63;4.53;;;;;;;;;;5056669;28;20174;-70
2023/09/19 12:50:01;;;;;;;12.43;3.73;;;;;;;;;;5054977;28;20205;-69
2023/09/19 12:52:27;;;;;;;6.17;2.60;;;;;;;;;;5054901;28;20217;-69
2023/09/19 12:54:53;;;;;;;9.30;2.87;;;;;;;;;;5056289;28;20174;-70
2023/09/19 12:57:25;;;;;;;8.57;3.50;;;;;;;;;;5054940;28;20216;-69
2023/09/19 12:59:52;;;;;;;7.97;2.73;;;;;;;;;;5054593;28;20230;-69
2023/09/19 13:02:23;;;;;;;7.90;2.93;;;;;;;;;;5055934;28;20285;-69
2023/09/19 13:05:00;;;;;;;7.60;3.60;;;;;;;;;;5054514;28;20549;-69
2023/09/19 13:07:49;;;;;;;6.73;3.40;;;;;;;;;;5056632;28;20270;-69
2023/09/19 13:10:16;;;;;;;7.87;2.60;;;;;;;;;;5054733;28;20175;-68
2023/09/19 13:12:44;;;;;;;7.80;2.57;;;;;;;;;;5056362;28;20179;-69
2023/09/19 13:15:16;;;;;;;4.53;2.10;;;;;;;;;;5054593;28;20635;-69
2023/09/19 13:17:44;;;;;;;5.10;2.23;;;;;;;;;;5055568;28;20201;-68
2023/09/19 13:20:32;;;;;;;6.37;2.67;;;;;;;;;;5054385;28;20214;-69
2023/09/19 13:22:59;;;;;;;9.87;2.70;;;;;;;;;;5054615;28;20275;-69
2023/09/19 13:25:28;;;;;;;5.13;2.10;;;;;;;;;;5054298;28;20182;-70
2023/09/19 13:27:55;;;;;;;7.47;2.40;;;;;;;;;;5055802;28;20190;-69
2023/09/19 13:30:22;;;;;;;5.80;2.00;;;;;;;;;;5055748;28;20177;-69
2023/09/19 13:32:48;;;;;;;5.13;1.97;;;;;;;;;;5054457;28;20181;-69
2023/09/19 13:35:14;;;;;;;7.97;2.57;;;;;;;;;;5055369;28;20204;-69
2023/09/19 13:37:42;;;;;;;3.90;1.90;;;;;;;;;;5056348;28;20224;-69
2023/09/19 13:40:08;;;;;;;4.67;2.10;;;;;;;;;;5055087;28;20182;-69
2023/09/19 13:42:36;;;;;;;7.90;2.30;;;;;;;;;;5055984;28;20236;-69
2023/09/19 13:45:04;;;;;;;6.67;2.20;;;;;;;;;;5056860;28;20171;-69
2023/09/19 13:47:30;;;;;;;4.07;1.60;;;;;;;;;;5055801;28;20261;-69
2023/09/19 13:49:56;;;;;;;6.20;1.90;;;;;;;;;;5055915;28;20217;-69
2023/09/19 13:52:23;;;;;;;6.03;2.20;;;;;;;;;;5054279;28;20186;-69
2023/09/19 13:54:49;;;;;;;7.00;2.57;;;;;;;;;;5055004;28;20639;-70
2023/09/19 13:57:16;;;;;;;5.70;2.50;;;;;;;;;;5055251;28;20239;-69
2023/09/19 13:59:42;;;;;;;6.13;2.03;;;;;;;;;;5054859;28;20202;-69
2023/09/19 14:02:08;;;;;;;8.27;2.20;;;;;;;;;;5054954;28;20573;-69
2023/09/19 14:04:34;;;;;;;2.73;1.60;;;;;;;;;;5054730;28;20671;-69
2023/09/19 14:07:00;;;;;;;6.47;2.03;;;;;;;;;;5055272;28;20493;-68
2023/09/19 14:09:27;;;;;;;4.53;1.57;;;;;;;;;;5053383;28;20194;-69
2023/09/19 14:11:53;;;;;;;8.37;2.00;;;;;;;;;;5053571;28;20233;-69
2023/09/19 14:14:20;;;;;;;5.37;1.93;;;;;;;;;;5054411;28;20648;-69
2023/09/19 14:16:46;;;;;;;3.57;1.77;;;;;;;;;;5053252;28;20186;-69
2023/09/19 14:19:13;;;;;;;2.50;1.43;;;;;;;;;;5054364;28;20195;-69
2023/09/19 14:21:39;;;;;;;5.60;1.67;;;;;;;;;;5052960;28;20217;-68
2023/09/19 14:24:12;;;;;;;2.97;1.60;;;;;;;;;;5054419;28;20178;-68
2023/09/19 14:26:38;;;;;;;3.40;1.73;;;;;;;;;;5053115;28;20232;-69
2023/09/19 14:29:07;;;;;;;3.07;1.67;;;;;;;;;;5054200;28;20198;-68
2023/09/19 14:31:33;;;;;;;6.60;2.00;;;;;;;;;;5053091;28;20227;-69
2023/09/19 14:33:59;;;;;;;5.43;1.40;;;;;;;;;;5053245;28;20183;-69
2023/09/19 14:36:26;;;;;;;3.70;1.67;;;;;;;;;;5054511;28;20431;-69
2023/09/19 14:38:56;;;;;;;4.80;1.90;;;;;;;;;;5053524;28;20690;-69
2023/09/19 14:41:23;;;;;;;1.97;1.50;;;;;;;;;;5052741;28;20320;-69
2023/09/19 14:43:49;;;;;;;2.87;1.23;;;;;;;;;;5052771;28;20201;-69
2023/09/19 14:46:15;;;;;;;3.90;1.50;;;;;;;;;;5060111;22;20242;-66
2023/09/19 14:48:42;;;;;;;4.33;1.70;;;;;;;;;;5034544;28;20180;-66
2023/09/19 14:51:09;;;;;;;4.13;1.67;;;;;;;;;;5033708;28;20195;-66
2023/09/19 14:53:35;;;;;;;4.33;1.60;;;;;;;;;;5034059;28;20171;-67
2023/09/19 14:56:04;;;;;;;4.13;1.40;;;;;;;;;;5034647;28;20191;-67